ROMMA est une association bénévole à but non lucratif. Votre soutien est indispensable : ADHERER à ROMMA ou FAIRE un DON

Crest - (26, Drôme)

Vallée de la Drôme (315 m)   Longitude: 5°2' E   Latitude: 44°44' N Station partenaire n°62
 

Détail journalier du     <<     >>

Température Precipitation Humidité Pression Vent Dir Rafale Dir. rafale Ensol.
Heure (°C) (mm) (%) (hPa) (km/h) (km/h) (min)
01:00 21.3047101310SSO23N0
02:00 21.204810137SSO19SO0
03:00 17.405810133ESE18N0
04:00 15.706510131ESE5ESE0
05:00 15.406510131SE5ESE0
06:00 14.107210141SE6SE0
07:00 14.107210141---3SE0
08:00 15.406710141ESE6ESE0
09:00 18.805710143ESE8ESE30
10:00 21.705410143ESE8ESE60
11:00 23.904910145S15SSO60
12:00 25.4046101410SSO23N60
13:00 27.4039101312N27N60
14:00 28.8034101311N31NE60
15:00 30.2027101211NE34NE60
16:00 30.9023101212NE29NNO60
17:00 31.7019101111SSO24NE60
18:00 31.802010116NE19NE60
19:00 30.902410116NE19NE60
20:00 28.902810116NE15SSO27
21:00 26.603210125SSO18SSO0
22:00 24.303910123SSO8SSO0
23:00 23.304210132SE10SE0
minuit 23.403910132SSE8SE0

Graphique du 04-08-2019

 

Serveur OMMA